createdAt,value
2019-04-07T00:01:13.380Z,8.40
2019-04-07T00:03:42.770Z,8.40
2019-04-07T00:06:12.223Z,8.30
2019-04-07T00:08:42.182Z,8.30
2019-04-07T00:11:11.706Z,8.30
2019-04-07T00:13:41.414Z,8.30
2019-04-07T00:16:11.026Z,8.30
2019-04-07T00:18:40.980Z,8.20
2019-04-07T00:21:11.302Z,8.20
2019-04-07T00:23:40.805Z,8.20
2019-04-07T00:26:10.155Z,8.20
2019-04-07T00:28:39.576Z,8.10
2019-04-07T00:31:09.028Z,8.10
2019-04-07T00:33:38.504Z,8.10
2019-04-07T00:36:08.294Z,8.10
2019-04-07T00:38:38.363Z,8.10
2019-04-07T00:41:07.958Z,8.10
2019-04-07T00:43:37.317Z,8.00
2019-04-07T00:46:06.986Z,8.10
2019-04-07T00:48:36.735Z,8.00
2019-04-07T00:51:06.625Z,8.00
2019-04-07T00:53:36.623Z,8.00
2019-04-07T00:56:06.321Z,8.00
2019-04-07T00:58:36.040Z,8.00
2019-04-07T01:01:07.398Z,8.00
2019-04-07T01:03:36.923Z,7.90
2019-04-07T01:06:06.527Z,7.90
2019-04-07T01:08:36.162Z,7.90
2019-04-07T01:11:06.260Z,7.90
2019-04-07T01:13:36.265Z,7.80
2019-04-07T01:16:06.648Z,7.90
2019-04-07T01:18:37.062Z,7.80
2019-04-07T01:21:07.342Z,7.80
2019-04-07T01:23:36.935Z,7.80
2019-04-07T01:26:06.446Z,7.80
2019-04-07T01:28:36.290Z,7.80
2019-04-07T01:31:05.804Z,7.80
2019-04-07T01:33:35.150Z,7.80
2019-04-07T01:36:05.253Z,7.80
2019-04-07T01:38:34.801Z,7.70
2019-04-07T01:41:15.281Z,7.80
2019-04-07T01:43:49.975Z,7.70
2019-04-07T01:46:32.705Z,7.70
2019-04-07T01:49:21.092Z,7.60
2019-04-07T01:52:21.777Z,7.60
2019-04-07T01:55:09.236Z,7.60
2019-04-07T01:58:02.094Z,7.60
2019-04-07T02:00:48.447Z,7.60
2019-04-07T02:03:37.387Z,7.60
2019-04-07T02:06:18.950Z,7.60
2019-04-07T02:09:13.655Z,7.60
2019-04-07T02:12:04.861Z,7.60
2019-04-07T02:14:53.312Z,7.60
2019-04-07T02:17:51.549Z,7.60
2019-04-07T02:21:08.516Z,7.60
2019-04-07T02:24:12.870Z,7.50
2019-04-07T02:27:05.229Z,7.60
2019-04-07T02:30:04.320Z,7.50
2019-04-07T02:32:42.139Z,7.50
2019-04-07T02:35:31.962Z,7.50
2019-04-07T02:38:15.841Z,7.50
2019-04-07T02:41:21.182Z,7.50
2019-04-07T02:44:09.704Z,7.50
2019-04-07T02:46:58.817Z,7.50
2019-04-07T02:49:39.446Z,7.40
2019-04-07T02:52:28.139Z,7.40
2019-04-07T02:55:26.769Z,7.50
2019-04-07T02:58:22.762Z,7.50
2019-04-07T03:01:02.266Z,7.50
2019-04-07T03:03:54.367Z,7.40
2019-04-07T03:06:53.447Z,7.40
2019-04-07T03:09:46.092Z,7.40
2019-04-07T03:12:46.724Z,7.40
2019-04-07T03:15:36.263Z,7.40
2019-04-07T03:18:17.013Z,7.40
2019-04-07T03:21:03.234Z,7.40
2019-04-07T03:23:51.385Z,7.40
2019-04-07T03:26:32.970Z,7.40
2019-04-07T03:29:25.579Z,7.40
2019-04-07T03:32:06.257Z,7.40
2019-04-07T03:35:06.200Z,7.40
2019-04-07T03:37:57.261Z,7.50
2019-04-07T03:40:59.003Z,7.50
2019-04-07T03:43:36.541Z,7.40
2019-04-07T03:46:14.618Z,7.50
2019-04-07T03:48:51.496Z,7.50
2019-04-07T03:51:30.816Z,7.50
2019-04-07T03:54:22.857Z,7.50
2019-04-07T03:57:11.376Z,7.50
2019-04-07T04:00:02.758Z,7.50
2019-04-07T04:02:49.310Z,7.50
2019-04-07T04:05:36.719Z,7.50
2019-04-07T04:08:12.618Z,7.50
2019-04-07T04:11:06.910Z,7.50
2019-04-07T04:13:56.549Z,7.50
2019-04-07T04:16:36.631Z,7.60
2019-04-07T04:19:06.759Z,7.60
2019-04-07T04:21:36.491Z,7.60
2019-04-07T04:24:06.195Z,7.60
2019-04-07T04:26:35.915Z,7.60
2019-04-07T04:29:05.717Z,7.60
2019-04-07T04:31:35.971Z,7.60
2019-04-07T04:34:05.736Z,7.60
2019-04-07T04:36:36.061Z,7.60
2019-04-07T04:39:08.248Z,7.70
2019-04-07T04:41:37.757Z,7.70
2019-04-07T04:44:08.617Z,7.70
2019-04-07T04:46:38.770Z,7.70
2019-04-07T04:49:08.302Z,7.70
2019-04-07T04:51:39.518Z,7.70
2019-04-07T04:54:08.744Z,7.80
2019-04-07T04:56:38.136Z,7.80
2019-04-07T04:59:07.560Z,7.80
2019-04-07T05:01:37.781Z,7.80
2019-04-07T05:04:07.520Z,7.80
2019-04-07T05:06:37.729Z,7.80
2019-04-07T05:09:09.109Z,7.80
2019-04-07T05:11:38.672Z,7.80
2019-04-07T05:14:08.925Z,7.80
2019-04-07T05:16:38.829Z,7.90
2019-04-07T05:19:08.785Z,7.80
2019-04-07T05:21:38.348Z,7.80
2019-04-07T05:24:07.850Z,7.90
2019-04-07T05:26:37.712Z,7.90
2019-04-07T05:29:07.266Z,7.90
2019-04-07T05:31:37.046Z,7.90
2019-04-07T05:34:06.663Z,7.90
2019-04-07T05:36:36.901Z,7.90
2019-04-07T05:39:08.631Z,7.90
2019-04-07T05:41:38.479Z,7.90
2019-04-07T05:44:08.005Z,7.90
2019-04-07T05:46:40.898Z,7.90
2019-04-07T05:49:08.718Z,7.90
2019-04-07T05:51:38.116Z,7.90
2019-04-07T05:54:08.064Z,7.90
2019-04-07T05:56:38.007Z,7.90
2019-04-07T05:59:11.668Z,7.90
2019-04-07T06:01:40.121Z,7.90
2019-04-07T06:04:14.254Z,8.00
2019-04-07T06:06:41.832Z,7.90
2019-04-07T06:09:11.860Z,7.90
2019-04-07T06:11:41.561Z,7.90
2019-04-07T06:14:13.400Z,7.90
2019-04-07T06:16:42.819Z,7.90
2019-04-07T06:19:12.989Z,8.00
2019-04-07T06:21:46.164Z,8.00
2019-04-07T06:24:14.579Z,8.00
2019-04-07T06:26:48.139Z,8.00
2019-04-07T06:29:15.130Z,8.00
2019-04-07T06:31:44.796Z,8.10
2019-04-07T06:34:14.487Z,8.10
2019-04-07T06:36:44.192Z,8.10
2019-04-07T06:39:17.389Z,8.10
2019-04-07T06:41:45.416Z,8.20
2019-04-07T06:44:18.866Z,8.20
2019-04-07T06:47:16.516Z,8.20
2019-04-07T06:50:00.705Z,8.20
2019-04-07T06:52:52.086Z,8.30
2019-04-07T06:55:39.506Z,8.30
2019-04-07T06:58:38.776Z,8.40
2019-04-07T07:01:25.789Z,8.40
2019-04-07T07:04:14.211Z,8.50
2019-04-07T07:06:56.872Z,8.40
2019-04-07T07:09:54.829Z,8.50
2019-04-07T07:12:42.740Z,8.50
2019-04-07T07:15:33.716Z,8.40
2019-04-07T07:18:26.016Z,8.50
2019-04-07T07:21:14.767Z,8.50
2019-04-07T07:23:48.723Z,8.50
2019-04-07T07:26:17.094Z,8.60
2019-04-07T07:28:46.968Z,8.60
2019-04-07T07:31:16.751Z,8.60
2019-04-07T07:33:46.392Z,8.60
2019-04-07T07:36:18.420Z,8.60
2019-04-07T07:38:57.620Z,8.60
2019-04-07T07:41:21.144Z,8.70
2019-04-07T07:43:49.701Z,8.70
2019-04-07T07:46:21.828Z,8.70
2019-04-07T07:48:51.122Z,8.70
2019-04-07T07:51:21.448Z,8.70
2019-04-07T07:53:51.724Z,8.70
2019-04-07T07:56:21.368Z,8.70
2019-04-07T07:58:50.985Z,8.70
2019-04-07T08:01:21.025Z,8.80
2019-04-07T08:03:53.016Z,8.80
2019-04-07T08:06:21.931Z,8.90
2019-04-07T08:08:51.475Z,8.90
2019-04-07T08:11:20.878Z,8.90
2019-04-07T08:13:50.299Z,9.00
2019-04-07T08:16:20.508Z,9.00
2019-04-07T08:18:50.995Z,9.00
2019-04-07T08:21:20.599Z,9.10
2019-04-07T08:23:50.245Z,9.20
2019-04-07T08:26:20.478Z,9.30
2019-04-07T08:28:51.410Z,9.30
2019-04-07T08:31:21.564Z,9.40
2019-04-07T08:33:51.843Z,9.50
2019-04-07T08:36:22.658Z,9.60
2019-04-07T08:38:55.603Z,9.70
2019-04-07T08:41:23.468Z,9.80
2019-04-07T08:43:55.282Z,9.90
2019-04-07T08:46:26.414Z,9.90
2019-04-07T08:49:01.713Z,10.00
2019-04-07T08:51:32.505Z,10.10
2019-04-07T08:54:04.553Z,10.20
2019-04-07T08:56:34.203Z,10.30
2019-04-07T08:59:03.943Z,10.40
2019-04-07T09:01:33.554Z,10.60
2019-04-07T09:04:02.914Z,10.80
2019-04-07T09:06:33.196Z,11.10
2019-04-07T09:09:07.231Z,11.20
2019-04-07T09:11:39.049Z,11.40
2019-04-07T09:14:07.967Z,11.50
2019-04-07T09:16:57.183Z,11.60
2019-04-07T09:19:39.972Z,11.60
2019-04-07T09:22:37.805Z,11.70
2019-04-07T09:25:26.080Z,11.80
2019-04-07T09:28:13.375Z,11.90
2019-04-07T09:30:48.973Z,12.10
2019-04-07T09:33:37.700Z,12.20
2019-04-07T09:36:26.504Z,12.30
2019-04-07T09:39:09.580Z,12.50
2019-04-07T09:42:00.834Z,12.70
2019-04-07T09:44:46.897Z,12.80
2019-04-07T09:47:35.836Z,12.90
2019-04-07T09:50:26.870Z,13.00
2019-04-07T09:53:13.818Z,13.20
2019-04-07T09:56:18.494Z,13.50
2019-04-07T09:59:19.170Z,13.90
2019-04-07T10:02:19.592Z,14.00
2019-04-07T10:05:06.795Z,14.10
2019-04-07T10:07:45.539Z,14.30
2019-04-07T10:10:42.343Z,14.40
2019-04-07T10:13:30.742Z,14.70
2019-04-07T10:16:24.593Z,14.90
2019-04-07T10:19:21.892Z,15.20
2019-04-07T10:22:10.696Z,15.50
2019-04-07T10:24:50.538Z,15.70
2019-04-07T10:27:28.585Z,15.70
2019-04-07T10:30:17.610Z,15.80
2019-04-07T10:32:58.444Z,16.00
2019-04-07T10:35:52.461Z,16.30
2019-04-07T10:38:30.343Z,16.70
2019-04-07T10:41:31.427Z,16.90
2019-04-07T10:44:36.427Z,16.80
2019-04-07T10:47:18.414Z,16.80
2019-04-07T10:50:22.164Z,16.90
2019-04-07T10:53:11.302Z,16.80
2019-04-07T10:56:02.733Z,16.70
2019-04-07T10:58:50.209Z,16.50
2019-04-07T11:01:27.223Z,16.50
2019-04-07T11:04:36.434Z,16.50
2019-04-07T11:07:24.975Z,16.30
2019-04-07T11:10:07.975Z,16.30
2019-04-07T11:12:53.682Z,16.20
2019-04-07T11:15:37.274Z,16.10
2019-04-07T11:18:14.593Z,16.10
2019-04-07T11:20:59.543Z,16.00
2019-04-07T11:23:43.505Z,16.00
2019-04-07T11:26:32.148Z,15.90
2019-04-07T11:29:14.450Z,15.90
2019-04-07T11:31:54.934Z,15.80
2019-04-07T11:34:45.491Z,15.70
2019-04-07T11:37:34.232Z,15.70
2019-04-07T11:40:22.871Z,15.70
2019-04-07T11:43:07.898Z,15.60
2019-04-07T11:46:02.869Z,15.60
2019-04-07T11:48:55.947Z,15.60
2019-04-07T11:51:31.404Z,15.70
2019-04-07T11:54:18.081Z,15.70
2019-04-07T11:57:03.323Z,15.90
2019-04-07T11:59:51.283Z,16.10
2019-04-07T12:02:41.527Z,16.40
2019-04-07T12:05:47.283Z,16.80
2019-04-07T12:08:44.509Z,17.00
2019-04-07T12:11:32.702Z,17.40
2019-04-07T12:14:30.755Z,17.50
2019-04-07T12:17:34.842Z,17.60
2019-04-07T12:20:30.946Z,17.80
2019-04-07T12:23:20.399Z,17.80
2019-04-07T12:26:10.014Z,17.90
2019-04-07T12:28:58.422Z,18.00
2019-04-07T12:31:57.731Z,18.10
2019-04-07T12:34:58.268Z,18.30
2019-04-07T12:37:39.225Z,18.30
2019-04-07T12:40:25.946Z,18.40
2019-04-07T12:43:12.459Z,18.50
2019-04-07T12:45:59.343Z,18.50
2019-04-07T12:48:43.558Z,18.20
2019-04-07T12:51:41.640Z,18.10
2019-04-07T12:54:33.178Z,17.90
2019-04-07T12:57:24.279Z,18.10
2019-04-07T13:00:15.740Z,18.10
2019-04-07T13:03:02.905Z,18.20
2019-04-07T13:05:49.925Z,18.30
2019-04-07T13:08:39.248Z,18.50
2019-04-07T13:11:45.264Z,18.40
2019-04-07T13:14:42.737Z,18.40
2019-04-07T13:17:41.026Z,18.40
2019-04-07T13:20:26.794Z,18.60
2019-04-07T13:23:18.731Z,18.60
2019-04-07T13:26:07.764Z,18.70
2019-04-07T13:29:08.294Z,18.50
2019-04-07T13:32:10.312Z,18.50
2019-04-07T13:34:53.568Z,18.50
2019-04-07T13:37:42.409Z,18.40
2019-04-07T13:40:26.096Z,18.30
2019-04-07T13:43:17.684Z,18.30
2019-04-07T13:45:58.809Z,18.40
2019-04-07T13:48:41.111Z,18.30
2019-04-07T13:51:32.326Z,18.40
2019-04-07T13:54:34.058Z,18.40
2019-04-07T13:57:26.285Z,18.40
2019-04-07T14:00:17.196Z,18.50
2019-04-07T14:03:06.901Z,18.50
2019-04-07T14:06:04.503Z,18.30
2019-04-07T14:08:57.565Z,18.10
2019-04-07T14:11:58.185Z,18.10
2019-04-07T14:14:34.186Z,18.10
2019-04-07T14:17:22.879Z,17.90
2019-04-07T14:20:15.007Z,17.80
2019-04-07T14:23:03.218Z,17.70
2019-04-07T14:25:53.611Z,17.60
2019-04-07T14:28:44.172Z,17.60
2019-04-07T14:31:29.371Z,17.60
2019-04-07T14:34:18.213Z,17.60
2019-04-07T14:37:07.198Z,17.50
2019-04-07T14:39:58.764Z,17.30
2019-04-07T14:42:42.891Z,17.10
2019-04-07T14:45:47.504Z,17.10
2019-04-07T14:48:28.249Z,17.00
2019-04-07T14:51:23.027Z,17.00
2019-04-07T14:54:11.021Z,16.90
2019-04-07T14:56:53.217Z,16.80
2019-04-07T14:59:57.798Z,16.80
2019-04-07T15:02:29.111Z,16.70
2019-04-07T15:05:07.622Z,16.70
2019-04-07T15:07:46.264Z,16.60
2019-04-07T15:10:21.576Z,16.60
2019-04-07T15:13:00.004Z,16.50
2019-04-07T15:15:30.312Z,16.40
2019-04-07T15:17:59.900Z,16.30
2019-04-07T15:20:30.313Z,16.30
2019-04-07T15:23:01.927Z,16.30
2019-04-07T15:25:32.005Z,16.40
2019-04-07T15:28:02.443Z,16.40
2019-04-07T15:30:32.983Z,16.40
2019-04-07T15:36:21.103Z,16.30
2019-04-07T15:38:51.139Z,16.30
2019-04-07T15:41:32.715Z,16.30
2019-04-07T15:44:06.329Z,16.20
2019-04-07T15:46:34.426Z,16.20
2019-04-07T15:50:00.692Z,16.10
2019-04-07T15:52:31.982Z,16.20
2019-04-07T15:55:47.704Z,16.10
2019-04-07T15:58:10.727Z,16.10
2019-04-07T16:00:46.179Z,16.00
2019-04-07T16:03:16.930Z,16.00
2019-04-07T16:05:46.746Z,16.00
2019-04-07T16:08:16.851Z,15.90
2019-04-07T16:10:46.709Z,15.90
2019-04-07T16:13:19.814Z,15.80
2019-04-07T16:15:52.879Z,15.80
2019-04-07T16:18:20.668Z,15.80
2019-04-07T16:20:50.671Z,15.70
2019-04-07T16:23:20.945Z,15.80
2019-04-07T16:25:51.177Z,15.70
2019-04-07T16:28:20.807Z,15.70
2019-04-07T16:30:52.018Z,15.60
2019-04-07T16:33:21.839Z,15.60
2019-04-07T16:35:55.245Z,15.60
2019-04-07T16:38:22.547Z,15.50
2019-04-07T16:40:52.710Z,15.40
2019-04-07T16:43:22.203Z,15.40
2019-04-07T16:45:53.529Z,15.30
2019-04-07T16:48:23.460Z,15.30
2019-04-07T16:50:55.268Z,15.30
2019-04-07T16:53:24.826Z,15.20
2019-04-07T16:55:55.700Z,15.30
2019-04-07T16:58:25.764Z,15.20
2019-04-07T17:00:55.979Z,15.10
2019-04-07T17:03:25.786Z,15.10
2019-04-07T17:05:58.899Z,15.10
2019-04-07T17:08:28.631Z,15.00
2019-04-07T17:10:57.584Z,14.90
2019-04-07T17:13:34.508Z,14.90
2019-04-07T17:16:01.462Z,14.90
2019-04-07T17:18:43.237Z,14.90
2019-04-07T17:21:17.040Z,14.80
2019-04-07T17:23:47.595Z,14.80
2019-04-07T17:26:18.117Z,14.70
2019-04-07T17:28:49.521Z,14.70
2019-04-07T17:31:18.945Z,14.60
2019-04-07T17:33:52.110Z,14.60
2019-04-07T17:36:22.736Z,14.50
2019-04-07T17:39:04.040Z,14.50
2019-04-07T17:41:32.459Z,14.40
2019-04-07T17:44:30.357Z,14.40
2019-04-07T17:47:15.743Z,14.30
2019-04-07T17:50:04.173Z,14.20
2019-04-07T17:52:52.320Z,14.10
2019-04-07T17:55:42.974Z,14.10
2019-04-07T17:58:31.005Z,14.00
2019-04-07T18:01:12.745Z,13.90
2019-04-07T18:04:00.682Z,13.80
2019-04-07T18:06:52.451Z,13.80
2019-04-07T18:09:30.947Z,13.70
2019-04-07T18:12:20.034Z,13.60
2019-04-07T18:15:20.434Z,13.50
2019-04-07T18:18:21.175Z,13.50
2019-04-07T18:21:13.215Z,13.40
2019-04-07T18:24:01.282Z,13.40
2019-04-07T18:26:41.574Z,13.40
2019-04-07T18:29:23.256Z,13.30
2019-04-07T18:32:07.622Z,13.20
2019-04-07T18:34:49.634Z,13.20
2019-04-07T18:37:40.066Z,13.10
2019-04-07T18:40:33.573Z,13.10
2019-04-07T18:43:25.626Z,13.00
2019-04-07T18:46:19.332Z,12.90
2019-04-07T18:49:11.409Z,12.80
2019-04-07T18:52:16.073Z,12.80
2019-04-07T18:55:09.757Z,12.70
2019-04-07T18:57:47.098Z,12.70
2019-04-07T19:00:52.165Z,12.50
2019-04-07T19:03:51.929Z,12.50
2019-04-07T19:06:40.701Z,12.50
2019-04-07T19:09:29.236Z,12.40
2019-04-07T19:12:28.084Z,12.40
2019-04-07T19:15:12.092Z,12.40
2019-04-07T19:17:57.497Z,12.30
2019-04-07T19:20:44.205Z,12.30
2019-04-07T19:23:26.239Z,12.20
2019-04-07T19:26:17.106Z,12.20
2019-04-07T19:28:54.090Z,12.10
2019-04-07T19:31:50.495Z,12.10
2019-04-07T19:34:36.217Z,12.00
2019-04-07T19:37:24.831Z,11.90
2019-04-07T19:40:10.224Z,11.90
2019-04-07T19:42:49.875Z,11.80
2019-04-07T19:45:40.079Z,11.80
2019-04-07T19:48:31.737Z,11.70
2019-04-07T19:51:22.453Z,11.70
2019-04-07T19:54:05.018Z,11.60
2019-04-07T19:56:55.070Z,11.60
2019-04-07T19:59:46.692Z,11.50
2019-04-07T20:02:30.528Z,11.50
2019-04-07T20:05:08.757Z,11.40
2019-04-07T20:07:56.116Z,11.40
2019-04-07T20:10:49.883Z,11.30
2019-04-07T20:13:40.453Z,11.30
2019-04-07T20:16:26.339Z,11.30
2019-04-07T20:19:11.537Z,11.30
2019-04-07T20:22:09.126Z,11.20
2019-04-07T20:25:08.714Z,11.20
2019-04-07T20:27:46.935Z,11.20
2019-04-07T20:30:35.614Z,11.10
2019-04-07T20:33:19.566Z,11.10
2019-04-07T20:36:17.676Z,11.10
2019-04-07T20:39:03.958Z,11.10
2019-04-07T20:41:52.848Z,11.00
2019-04-07T20:44:41.446Z,10.90
2019-04-07T20:47:32.791Z,10.90
2019-04-07T20:50:16.522Z,10.90
2019-04-07T20:53:14.818Z,10.90
2019-04-07T20:55:52.725Z,10.80
2019-04-07T20:58:46.450Z,10.80
2019-04-07T21:01:36.612Z,10.80
2019-04-07T21:04:28.361Z,10.80
2019-04-07T21:07:28.342Z,10.70
2019-04-07T21:10:10.921Z,10.70
2019-04-07T21:13:05.906Z,10.70
2019-04-07T21:15:55.236Z,10.70
2019-04-07T21:18:50.159Z,10.70
2019-04-07T21:21:27.181Z,10.70
2019-04-07T21:24:18.260Z,10.70
2019-04-07T21:26:59.420Z,10.60
2019-04-07T21:29:43.375Z,10.60
2019-04-07T21:32:31.151Z,10.60
2019-04-07T21:35:19.216Z,10.60
2019-04-07T21:38:08.106Z,10.50
2019-04-07T21:41:00.054Z,10.50
2019-04-07T21:43:48.852Z,10.50
2019-04-07T21:46:54.768Z,10.40
2019-04-07T21:49:34.758Z,10.30
2019-04-07T21:52:09.709Z,10.30
2019-04-07T21:54:51.790Z,10.30
2019-04-07T21:57:52.415Z,10.20
2019-04-07T22:00:37.052Z,10.20
2019-04-07T22:03:29.001Z,10.20
2019-04-07T22:06:30.567Z,10.10
2019-04-07T22:09:14.687Z,10.10
2019-04-07T22:11:44.542Z,10.10
2019-04-07T22:14:14.671Z,10.10
2019-04-07T22:16:44.926Z,10.00
2019-04-07T22:19:16.231Z,10.00
2019-04-07T22:21:46.153Z,10.00
2019-04-07T22:24:15.727Z,10.00
2019-04-07T22:26:49.074Z,9.90
2019-04-07T22:29:16.265Z,9.90
2019-04-07T22:31:49.496Z,9.90
2019-04-07T22:34:18.957Z,9.90
2019-04-07T22:36:48.473Z,9.80
2019-04-07T22:39:18.458Z,9.80
2019-04-07T22:41:48.496Z,9.70
2019-04-07T22:44:20.410Z,9.70
2019-04-07T22:46:52.138Z,9.70
2019-04-07T22:49:21.717Z,9.70
2019-04-07T22:51:53.768Z,9.70
2019-04-07T22:54:27.247Z,9.70
2019-04-07T22:56:54.300Z,9.70
2019-04-07T22:59:23.933Z,9.60
2019-04-07T23:01:53.672Z,9.60
2019-04-07T23:04:23.258Z,9.60
2019-04-07T23:06:52.932Z,9.60
2019-04-07T23:09:23.111Z,9.50
2019-04-07T23:11:52.855Z,9.50
2019-04-07T23:14:23.298Z,9.50
2019-04-07T23:16:53.031Z,9.50
2019-04-07T23:19:22.822Z,9.50
2019-04-07T23:21:52.244Z,9.50
2019-04-07T23:24:22.011Z,9.50
2019-04-07T23:26:51.521Z,9.50
2019-04-07T23:29:21.883Z,9.40
2019-04-07T23:31:51.567Z,9.40
2019-04-07T23:34:21.146Z,9.40
2019-04-07T23:36:50.787Z,9.30
2019-04-07T23:39:20.174Z,9.30
2019-04-07T23:41:49.855Z,9.30
2019-04-07T23:44:20.202Z,9.30
2019-04-07T23:46:50.723Z,9.30
2019-04-07T23:49:20.627Z,9.30
2019-04-07T23:51:51.059Z,9.30
2019-04-07T23:54:20.722Z,9.30
2019-04-07T23:56:50.439Z,9.30
2019-04-07T23:59:20.721Z,9.30
